Time;durP1;ratioP1;P1;durP2;ratioP2;P2;SDS_P1;SDS_P2;PMS_P1;PMS_P2;Temp;Humidity;BMP_temperature;BMP_pressure;BME280_temperature;BME280_humidity;BME280_pressure;Samples;Min_cycle;Max_cycle;Signal;HPM_P1;HPM_P2
2022/01/31 00:01:49;;;;;;;27.65;4.90;;;4.20;99.90;;;;;;5055205;28;20059;-72
2022/01/31 00:04:15;;;;;;;28.40;5.03;;;4.20;99.90;;;;;;5055131;28;20044;-72
2022/01/31 00:06:42;;;;;;;20.65;5.70;;;4.20;99.90;;;;;;5054911;28;20119;-72
2022/01/31 00:09:14;;;;;;;24.40;5.38;;;4.20;99.90;;;;;;5055400;28;20074;-72
2022/01/31 00:11:42;;;;;;;24.15;4.93;;;4.20;99.90;;;;;;5055039;28;20056;-71
2022/01/31 00:14:16;;;;;;;25.55;4.82;;;4.20;99.90;;;;;;5054990;28;20047;-71
2022/01/31 00:16:42;;;;;;;21.92;5.50;;;4.10;99.90;;;;;;5054893;28;20453;-71
2022/01/31 00:19:07;;;;;;;22.48;4.75;;;4.10;99.90;;;;;;5038346;28;20037;-71
2022/01/31 00:21:33;;;;;;;24.52;5.20;;;4.10;99.90;;;;;;5054953;28;20047;-72
2022/01/31 00:23:59;;;;;;;26.38;5.68;;;4.10;99.90;;;;;;5038307;28;20071;-72
2022/01/31 00:26:24;;;;;;;24.13;5.22;;;4.10;99.90;;;;;;5054855;28;20048;-72
2022/01/31 00:28:50;;;;;;;24.67;5.47;;;4.10;99.90;;;;;;5038288;28;20037;-72
2022/01/31 00:31:17;;;;;;;20.00;5.18;;;4.10;99.90;;;;;;5054800;28;20038;-72
2022/01/31 00:33:42;;;;;;;22.65;5.13;;;4.10;99.90;;;;;;5054778;28;20051;-72
2022/01/31 00:36:08;;;;;;;25.15;5.20;;;4.10;99.90;;;;;;5054999;28;20040;-72
2022/01/31 00:38:34;;;;;;;25.88;5.80;;;4.10;99.90;;;;;;5055048;28;20497;-72
2022/01/31 00:41:00;;;;;;;30.10;5.95;;;4.10;99.90;;;;;;5055041;28;20105;-72
2022/01/31 00:43:26;;;;;;;25.27;6.13;;;4.10;99.90;;;;;;5054766;28;20489;-72
2022/01/31 00:46:00;;;;;;;24.23;6.28;;;4.10;99.90;;;;;;5058249;28;20084;-72
2022/01/31 00:48:27;;;;;;;27.33;6.63;;;4.10;99.90;;;;;;5059034;28;20405;-72
2022/01/31 00:50:53;;;;;;;24.10;5.82;;;4.10;99.90;;;;;;5058613;28;20486;-71
2022/01/31 00:53:18;;;;;;;27.30;6.22;;;4.20;99.90;;;;;;5058615;28;20044;-72
2022/01/31 00:55:44;;;;;;;27.27;6.65;;;4.20;99.90;;;;;;5042012;28;20037;-72
2022/01/31 00:58:09;;;;;;;28.05;6.93;;;4.20;99.90;;;;;;5042160;28;20032;-72
2022/01/31 01:00:36;;;;;;;22.90;6.10;;;4.20;99.90;;;;;;5041890;28;20139;-72
2022/01/31 01:03:03;;;;;;;23.63;6.80;;;4.20;99.90;;;;;;5058678;28;20395;-72
2022/01/31 01:05:28;;;;;;;24.80;7.40;;;4.20;99.90;;;;;;5058302;28;20040;-72
2022/01/31 01:07:54;;;;;;;24.20;7.20;;;4.20;99.90;;;;;;5041472;28;20044;-72
2022/01/31 01:10:19;;;;;;;19.88;7.47;;;4.20;99.90;;;;;;5058266;28;20036;-72
2022/01/31 01:12:46;;;;;;;27.25;7.00;;;4.20;99.90;;;;;;5058299;28;20190;-72
2022/01/31 01:15:14;;;;;;;26.52;8.32;;;4.20;99.90;;;;;;5041613;28;20040;-72
2022/01/31 01:17:40;;;;;;;25.60;7.85;;;4.20;99.90;;;;;;5058345;28;20070;-72
2022/01/31 01:20:07;;;;;;;22.50;7.90;;;4.20;99.90;;;;;;5057977;28;20036;-72
2022/01/31 01:22:32;;;;;;;28.35;8.75;;;4.10;99.90;;;;;;5058045;28;20044;-72
2022/01/31 01:24:59;;;;;;;22.35;8.35;;;4.10;99.90;;;;;;5041445;28;20085;-72
2022/01/31 01:27:25;;;;;;;22.42;9.20;;;4.10;99.90;;;;;;5057875;28;20525;-72
2022/01/31 01:29:50;;;;;;;23.30;8.88;;;4.10;99.90;;;;;;5057922;28;20048;-72
2022/01/31 01:32:16;;;;;;;29.60;10.20;;;4.10;99.90;;;;;;5041571;28;20083;-72
2022/01/31 01:34:43;;;;;;;30.77;9.73;;;4.10;99.90;;;;;;5057864;28;20570;-72
2022/01/31 01:37:09;;;;;;;32.40;10.57;;;4.00;99.90;;;;;;5057952;28;20532;-72
2022/01/31 01:39:35;;;;;;;29.35;10.80;;;4.00;99.90;;;;;;5057739;28;20040;-71
2022/01/31 01:42:00;;;;;;;28.67;10.80;;;3.90;99.90;;;;;;5057979;28;20051;-71
2022/01/31 01:44:45;;;;;;;34.13;12.10;;;3.90;99.90;;;;;;5073455;23;20378;-70
2022/01/31 01:47:11;;;;;;;28.65;12.02;;;3.90;99.90;;;;;;5017942;28;20059;-71
2022/01/31 01:49:37;;;;;;;33.03;11.57;;;3.90;99.90;;;;;;5034300;28;20410;-70
2022/01/31 01:52:04;;;;;;;27.15;12.55;;;3.80;99.90;;;;;;5034346;28;20037;-71
2022/01/31 01:54:30;;;;;;;33.47;11.93;;;3.80;99.90;;;;;;5034322;28;20499;-70
2022/01/31 01:56:58;;;;;;;24.23;11.48;;;3.80;99.90;;;;;;5033915;28;20041;-70
2022/01/31 01:59:24;;;;;;;21.00;11.90;;;3.70;99.90;;;;;;5034457;28;20053;-70
2022/01/31 02:01:49;;;;;;;20.20;11.25;;;3.70;99.90;;;;;;5035044;28;20564;-70
2022/01/31 02:04:15;;;;;;;22.52;11.98;;;3.60;99.90;;;;;;5034826;28;20038;-70
2022/01/31 02:06:41;;;;;;;26.40;13.15;;;3.50;99.90;;;;;;5034366;28;20092;-70
2022/01/31 02:09:06;;;;;;;24.52;13.65;;;3.50;99.90;;;;;;5034199;28;20499;-70
2022/01/31 02:11:32;;;;;;;24.92;12.90;;;3.50;99.90;;;;;;5017418;28;20046;-70
2022/01/31 02:13:57;;;;;;;23.42;13.50;;;3.40;99.90;;;;;;5033934;28;20068;-70
2022/01/31 02:16:23;;;;;;;25.15;13.63;;;3.40;99.90;;;;;;5033974;28;20065;-70
2022/01/31 02:18:51;;;;;;;28.90;14.35;;;3.40;99.90;;;;;;5017556;28;20045;-70
2022/01/31 02:21:17;;;;;;;26.50;14.60;;;3.40;99.90;;;;;;5017308;28;20482;-70
2022/01/31 02:23:44;;;;;;;23.65;15.07;;;3.40;99.90;;;;;;5034019;28;20056;-70
2022/01/31 02:26:10;;;;;;;23.75;14.55;;;3.40;99.90;;;;;;5033661;28;20495;-70
2022/01/31 02:28:37;;;;;;;25.95;14.43;;;3.40;99.90;;;;;;5033675;28;20052;-70
2022/01/31 02:31:04;;;;;;;26.65;14.73;;;3.40;99.90;;;;;;5033679;28;20065;-70
2022/01/31 02:33:30;;;;;;;24.23;14.02;;;3.40;99.90;;;;;;5033844;28;20045;-70
2022/01/31 02:36:01;;;;;;;28.10;14.10;;;3.40;99.90;;;;;;5033653;28;20395;-70
2022/01/31 02:38:28;;;;;;;22.70;13.50;;;3.40;99.90;;;;;;5017360;28;20499;-70
2022/01/31 02:40:54;;;;;;;21.15;13.23;;;3.50;99.90;;;;;;5033425;28;20045;-70
2022/01/31 02:43:23;;;;;;;21.23;12.25;;;3.50;99.90;;;;;;5033659;28;20042;-70
2022/01/31 02:45:49;;;;;;;17.40;11.23;;;3.50;99.90;;;;;;5016662;28;20045;-70
2022/01/31 02:48:17;;;;;;;20.38;11.27;;;3.50;99.90;;;;;;5033285;28;20040;-70
2022/01/31 02:50:43;;;;;;;15.63;9.38;;;3.50;99.90;;;;;;5033148;28;20116;-70
2022/01/31 02:53:13;;;;;;;17.77;9.68;;;3.50;99.90;;;;;;5033210;28;20128;-70
2022/01/31 02:55:42;;;;;;;17.63;9.88;;;3.60;99.90;;;;;;5016942;28;20073;-70
2022/01/31 02:58:08;;;;;;;18.63;10.00;;;3.60;99.90;;;;;;5033114;28;20041;-70
2022/01/31 03:00:35;;;;;;;17.75;9.50;;;3.60;99.90;;;;;;5033078;28;20049;-72
2022/01/31 03:03:01;;;;;;;14.07;8.48;;;3.60;99.90;;;;;;5033020;28;20049;-72
2022/01/31 03:05:27;;;;;;;13.35;8.05;;;3.60;99.90;;;;;;5016421;28;20045;-72
2022/01/31 03:07:52;;;;;;;18.90;9.40;;;3.60;99.90;;;;;;5032015;28;20057;-72
2022/01/31 03:10:18;;;;;;;15.15;9.50;;;3.60;99.90;;;;;;5032754;28;20067;-73
2022/01/31 03:12:43;;;;;;;16.65;9.88;;;3.60;99.90;;;;;;5016379;28;20060;-73
2022/01/31 03:15:09;;;;;;;15.90;8.43;;;3.60;99.90;;;;;;5032675;28;20038;-72
2022/01/31 03:17:35;;;;;;;14.88;9.60;;;3.70;99.90;;;;;;5032944;28;20124;-72
2022/01/31 03:20:01;;;;;;;15.52;9.30;;;3.80;99.90;;;;;;5032723;28;20160;-73
2022/01/31 03:22:27;;;;;;;17.58;8.55;;;3.80;99.90;;;;;;5032671;28;20037;-73
2022/01/31 03:24:52;;;;;;;15.75;8.50;;;3.90;99.90;;;;;;5032427;28;20094;-73
2022/01/31 03:27:18;;;;;;;15.25;8.93;;;3.90;99.90;;;;;;5032553;28;20039;-73
2022/01/31 03:29:44;;;;;;;17.75;8.82;;;4.00;99.90;;;;;;5032476;28;20045;-72
2022/01/31 03:32:09;;;;;;;14.77;7.90;;;4.10;99.90;;;;;;5032421;28;20040;-73
2022/01/31 03:34:35;;;;;;;18.73;7.55;;;4.10;99.90;;;;;;5032314;28;20125;-72
2022/01/31 03:37:00;;;;;;;16.20;5.80;;;4.20;99.90;;;;;;5032352;28;20165;-72
2022/01/31 03:39:26;;;;;;;14.90;5.20;;;4.30;99.90;;;;;;5032366;28;20044;-73
2022/01/31 03:41:52;;;;;;;14.93;5.80;;;4.40;99.90;;;;;;5032330;28;20436;-73
2022/01/31 03:44:17;;;;;;;21.48;6.05;;;4.50;99.90;;;;;;5032103;28;20080;-72
2022/01/31 03:46:43;;;;;;;24.95;5.50;;;4.60;99.90;;;;;;5032483;28;20042;-72
2022/01/31 03:49:08;;;;;;;27.27;5.50;;;4.60;99.90;;;;;;5032201;28;20542;-72
2022/01/31 03:51:34;;;;;;;24.35;5.35;;;4.70;99.90;;;;;;5032099;28;20038;-72
2022/01/31 03:54:00;;;;;;;20.88;5.10;;;4.80;99.90;;;;;;5032044;28;20033;-72
2022/01/31 03:56:26;;;;;;;20.38;5.07;;;4.80;99.90;;;;;;5032332;28;20041;-73
2022/01/31 03:58:51;;;;;;;25.50;5.10;;;5.00;99.90;;;;;;5032077;28;20048;-72
2022/01/31 04:01:17;;;;;;;31.33;5.00;;;5.00;99.90;;;;;;5032260;28;20029;-72
2022/01/31 04:03:42;;;;;;;30.58;4.85;;;5.10;99.90;;;;;;5015844;28;20467;-73
2022/01/31 04:06:08;;;;;;;33.90;4.95;;;5.20;99.90;;;;;;5032172;28;20436;-72
2022/01/31 04:08:33;;;;;;;28.02;4.63;;;5.20;99.90;;;;;;5032103;28;20034;-72
2022/01/31 04:10:59;;;;;;;24.38;4.13;;;5.30;99.90;;;;;;5015401;28;20419;-72
2022/01/31 04:13:26;;;;;;;29.77;4.50;;;5.30;99.90;;;;;;5031883;28;20029;-72
2022/01/31 04:15:52;;;;;;;32.90;4.38;;;5.40;99.90;;;;;;5031778;28;20041;-72
2022/01/31 04:18:18;;;;;;;24.92;4.03;;;5.50;99.90;;;;;;5015449;28;20053;-72
2022/01/31 04:20:44;;;;;;;29.15;3.97;;;5.60;99.90;;;;;;5031773;28;20217;-72
2022/01/31 04:23:12;;;;;;;26.85;3.88;;;5.60;99.90;;;;;;5031717;28;20136;-72
2022/01/31 04:25:44;;;;;;;28.45;5.32;;;5.60;99.90;;;;;;5031947;28;20046;-72
2022/01/31 04:28:21;;;;;;;35.35;4.65;;;5.60;99.90;;;;;;5032032;28;20037;-72
2022/01/31 04:30:54;;;;;;;14.45;2.28;;;5.60;99.90;;;;;;5031794;28;20091;-73
2022/01/31 04:33:20;;;;;;;9.57;1.80;;;5.50;99.90;;;;;;5031772;28;20073;-73
2022/01/31 04:35:46;;;;;;;10.75;2.00;;;5.30;99.90;;;;;;5031596;28;20048;-73
2022/01/31 04:38:11;;;;;;;11.90;1.80;;;5.10;99.90;;;;;;5031502;28;20042;-73
2022/01/31 04:40:37;;;;;;;16.60;3.13;;;5.00;99.90;;;;;;5015085;28;20041;-73
2022/01/31 04:43:03;;;;;;;23.88;3.17;;;5.00;99.90;;;;;;5031574;28;20041;-73
2022/01/31 04:45:29;;;;;;;25.90;4.30;;;5.00;99.90;;;;;;5031344;28;20041;-72
2022/01/31 04:47:54;;;;;;;23.08;4.05;;;5.00;99.90;;;;;;5031497;28;20040;-72
2022/01/31 04:50:20;;;;;;;20.05;3.55;;;5.10;99.90;;;;;;5015243;28;20060;-72
2022/01/31 04:52:45;;;;;;;25.15;4.10;;;5.10;99.90;;;;;;5031519;28;20144;-72
2022/01/31 04:55:11;;;;;;;24.95;4.15;;;5.10;99.90;;;;;;5032632;28;20087;-72
2022/01/31 04:57:37;;;;;;;28.23;4.75;;;5.10;99.90;;;;;;5031392;28;20080;-72
2022/01/31 05:00:06;;;;;;;27.02;4.05;;;5.20;99.90;;;;;;5031441;28;20033;-72
2022/01/31 05:02:32;;;;;;;27.35;3.65;;;5.20;99.90;;;;;;5031656;28;20042;-72
2022/01/31 05:04:58;;;;;;;25.30;3.90;;;5.20;99.90;;;;;;5031340;28;20487;-72
2022/01/31 05:07:23;;;;;;;24.55;4.50;;;5.30;99.90;;;;;;5031591;28;20052;-72
2022/01/31 05:09:49;;;;;;;28.58;4.30;;;5.30;99.90;;;;;;5031511;28;20046;-72
2022/01/31 05:12:15;;;;;;;25.50;3.95;;;5.30;99.90;;;;;;5031335;28;20506;-72
2022/01/31 05:14:40;;;;;;;31.75;4.10;;;5.30;99.90;;;;;;5031203;28;20037;-72
2022/01/31 05:17:06;;;;;;;29.50;5.55;;;5.30;99.90;;;;;;5031283;28;20048;-73
2022/01/31 05:19:31;;;;;;;26.17;4.85;;;5.30;99.90;;;;;;5031531;28;20049;-73
2022/01/31 05:21:57;;;;;;;23.77;4.10;;;5.30;99.90;;;;;;5031432;28;20037;-72
2022/01/31 05:24:23;;;;;;;24.63;4.40;;;5.40;99.90;;;;;;5031471;28;20559;-72
2022/01/31 05:26:50;;;;;;;28.77;3.72;;;5.30;99.90;;;;;;5031175;28;20407;-73
2022/01/31 05:29:21;;;;;;;17.00;3.30;;;5.30;99.90;;;;;;5015045;28;20095;-72
2022/01/31 05:31:47;;;;;;;8.45;1.15;;;5.40;99.90;;;;;;5034114;28;20109;-73
2022/01/31 05:34:12;;;;;;;9.80;1.23;;;5.30;99.90;;;;;;5034665;28;20049;-72
2022/01/31 05:36:42;;;;;;;9.70;1.63;;;5.20;99.90;;;;;;5034737;28;20144;-73
2022/01/31 05:39:07;;;;;;;11.05;1.70;;;5.20;99.90;;;;;;5034574;28;20037;-73
2022/01/31 05:41:33;;;;;;;9.70;1.45;;;5.10;99.90;;;;;;5034600;28;20044;-73
2022/01/31 05:43:59;;;;;;;6.90;1.45;;;5.00;99.90;;;;;;5034822;28;20041;-73
2022/01/31 05:46:24;;;;;;;7.03;1.10;;;5.00;99.90;;;;;;5034394;28;20038;-72
2022/01/31 05:48:51;;;;;;;8.88;1.13;;;4.90;99.90;;;;;;5017968;28;20042;-73
2022/01/31 05:51:21;;;;;;;7.20;1.02;;;4.90;99.90;;;;;;5034334;28;20034;-73
2022/01/31 05:53:49;;;;;;;7.28;1.40;;;4.90;99.90;;;;;;5034443;28;20083;-73
2022/01/31 05:56:15;;;;;;;9.32;1.20;;;4.80;99.90;;;;;;5034507;28;20041;-72
2022/01/31 05:58:41;;;;;;;8.05;1.13;;;4.80;99.90;;;;;;5034248;28;20491;-72
2022/01/31 06:01:07;;;;;;;9.98;1.30;;;4.80;99.90;;;;;;5017608;28;20041;-73
2022/01/31 06:03:33;;;;;;;12.73;1.17;;;4.80;99.90;;;;;;5034160;28;20041;-73
2022/01/31 06:05:59;;;;;;;8.05;1.00;;;4.80;99.90;;;;;;5034037;28;20038;-73
2022/01/31 06:08:25;;;;;;;8.45;1.08;;;4.80;99.90;;;;;;5017869;28;20071;-73
2022/01/31 06:10:50;;;;;;;14.43;1.90;;;4.70;99.90;;;;;;5033890;28;20041;-73
2022/01/31 06:13:22;;;;;;;8.68;1.20;;;4.80;99.90;;;;;;5033994;28;20087;-73
2022/01/31 06:15:48;;;;;;;9.98;1.52;;;4.80;99.90;;;;;;5017636;28;20033;-72
2022/01/31 06:18:13;;;;;;;12.50;1.30;;;4.80;99.90;;;;;;5034173;28;20398;-72
2022/01/31 06:20:40;;;;;;;11.23;2.03;;;4.80;99.90;;;;;;5034275;28;20561;-72
2022/01/31 06:23:06;;;;;;;14.80;2.10;;;4.80;99.90;;;;;;5033783;28;20050;-72
2022/01/31 06:25:32;;;;;;;13.23;1.70;;;4.80;99.90;;;;;;5033953;28;20051;-72
2022/01/31 06:27:57;;;;;;;12.30;1.90;;;4.80;99.90;;;;;;5033731;28;20507;-72
2022/01/31 06:30:24;;;;;;;10.20;2.05;;;4.90;99.90;;;;;;5033636;28;20041;-73
2022/01/31 06:32:50;;;;;;;19.27;1.95;;;4.90;99.90;;;;;;5033613;28;20403;-73
2022/01/31 06:35:16;;;;;;;16.10;2.25;;;4.90;99.90;;;;;;5033492;28;20045;-72
2022/01/31 06:37:42;;;;;;;17.83;3.05;;;4.90;99.90;;;;;;5033493;28;20045;-73
2022/01/31 06:40:09;;;;;;;13.50;1.85;;;5.00;99.90;;;;;;5033502;28;20438;-73
2022/01/31 06:42:35;;;;;;;15.63;2.20;;;5.00;99.90;;;;;;5033388;28;20045;-73
2022/01/31 06:45:00;;;;;;;16.42;2.17;;;5.00;99.90;;;;;;5016885;28;20121;-72
2022/01/31 06:47:27;;;;;;;15.50;2.63;;;5.10;99.90;;;;;;5033353;28;20049;-73
2022/01/31 06:49:52;;;;;;;17.83;2.28;;;5.10;99.90;;;;;;5033220;28;20037;-72
2022/01/31 06:52:18;;;;;;;19.02;2.50;;;5.10;99.90;;;;;;5033230;28;20045;-73
2022/01/31 06:54:49;;;;;;;17.35;2.72;;;5.20;99.90;;;;;;5033019;28;20038;-72
2022/01/31 06:57:14;;;;;;;22.42;3.05;;;5.10;99.90;;;;;;5033151;28;20084;-73
2022/01/31 06:59:40;;;;;;;15.35;2.45;;;5.20;99.90;;;;;;5033313;28;20129;-73
2022/01/31 07:02:05;;;;;;;13.98;2.00;;;5.20;99.90;;;;;;5033246;28;20048;-73
2022/01/31 07:04:31;;;;;;;10.93;1.70;;;5.20;99.90;;;;;;5032941;28;20168;-72
2022/01/31 07:06:57;;;;;;;7.00;1.25;;;5.20;99.90;;;;;;5032928;28;20045;-72
2022/01/31 07:09:22;;;;;;;10.77;2.05;;;5.20;99.90;;;;;;5032885;28;20045;-73
2022/01/31 07:11:50;;;;;;;12.85;1.88;;;5.20;99.90;;;;;;5032794;28;20046;-73
2022/01/31 07:14:31;;;;;;;6.65;1.20;;;5.20;99.90;;;;;;5032760;28;20052;-72
2022/01/31 07:17:02;;;;;;;11.52;1.50;;;5.20;99.90;;;;;;5032740;28;20063;-72
2022/01/31 07:19:31;;;;;;;10.63;1.95;;;5.20;99.90;;;;;;5032998;28;20037;-73
2022/01/31 07:21:57;;;;;;;7.82;1.73;;;5.20;99.90;;;;;;5032727;28;20498;-72
2022/01/31 07:24:30;;;;;;;10.05;1.70;;;5.10;99.90;;;;;;5032901;28;20120;-72
2022/01/31 07:26:56;;;;;;;13.88;2.00;;;5.10;99.90;;;;;;5032893;28;20081;-72
2022/01/31 07:29:21;;;;;;;9.63;1.48;;;5.10;99.90;;;;;;5033084;28;20771;-72
2022/01/31 07:31:49;;;;;;;8.25;2.00;;;5.10;99.90;;;;;;5032414;28;20466;-72
2022/01/31 07:34:15;;;;;;;14.55;2.20;;;5.10;99.90;;;;;;5032652;28;20052;-72
2022/01/31 07:36:42;;;;;;;10.25;1.80;;;5.10;99.90;;;;;;5032413;28;20033;-73
2022/01/31 07:39:08;;;;;;;16.73;1.65;;;5.10;99.90;;;;;;5032423;28;20558;-73
2022/01/31 07:41:33;;;;;;;18.83;2.80;;;5.10;99.90;;;;;;5032315;28;20048;-73
2022/01/31 07:43:59;;;;;;;11.80;1.70;;;5.10;99.90;;;;;;5032201;28;20056;-72
2022/01/31 07:46:25;;;;;;;14.05;2.53;;;5.10;99.90;;;;;;5032686;28;20087;-72
2022/01/31 07:48:53;;;;;;;16.08;2.65;;;5.20;99.90;;;;;;5015844;28;20041;-72
2022/01/31 07:51:19;;;;;;;14.75;2.33;;;5.20;99.90;;;;;;5032224;28;20041;-72
2022/01/31 07:53:45;;;;;;;18.65;2.83;;;5.20;99.90;;;;;;5031962;28;20093;-72
2022/01/31 07:56:11;;;;;;;18.00;2.13;;;5.20;99.90;;;;;;5032041;28;20043;-72
2022/01/31 07:58:38;;;;;;;17.33;2.65;;;5.20;99.90;;;;;;5032101;28;20045;-72
2022/01/31 08:01:04;;;;;;;17.50;2.45;;;5.30;99.90;;;;;;5032054;28;20080;-72
2022/01/31 08:03:30;;;;;;;21.40;3.17;;;5.30;99.90;;;;;;5032017;28;20053;-72
2022/01/31 08:05:57;;;;;;;16.02;2.60;;;5.30;99.90;;;;;;5031921;28;20050;-72
2022/01/31 08:08:24;;;;;;;16.67;2.65;;;5.30;99.90;;;;;;5015453;28;20052;-72
2022/01/31 08:10:52;;;;;;;19.75;3.10;;;5.30;99.90;;;;;;5031848;28;20053;-72
2022/01/31 08:13:18;;;;;;;17.95;2.72;;;5.30;99.90;;;;;;5031901;28;20056;-72
2022/01/31 08:15:47;;;;;;;24.13;2.72;;;5.40;99.90;;;;;;5032040;28;20041;-72
2022/01/31 08:18:13;;;;;;;19.67;3.50;;;5.40;99.90;;;;;;5031860;28;20045;-72
2022/01/31 08:20:39;;;;;;;17.33;2.83;;;5.40;99.90;;;;;;5031775;28;20045;-72
2022/01/31 08:23:07;;;;;;;19.80;3.22;;;5.50;99.90;;;;;;5031785;28;20095;-72
2022/01/31 08:25:36;;;;;;;21.65;3.38;;;5.50;99.90;;;;;;5031719;28;20138;-72
2022/01/31 08:28:07;;;;;;;19.75;3.45;;;5.60;99.90;;;;;;5031769;28;20563;-72
2022/01/31 08:30:41;;;;;;;22.80;3.60;;;5.60;99.90;;;;;;5031855;28;20415;-72
2022/01/31 08:33:14;;;;;;;22.63;3.65;;;5.60;99.90;;;;;;5031733;28;20037;-72
2022/01/31 08:35:50;;;;;;;24.77;4.10;;;5.70;99.90;;;;;;5031922;28;20053;-73
2022/01/31 08:38:18;;;;;;;25.20;3.75;;;5.70;99.90;;;;;;5031950;28;20056;-72
2022/01/31 08:40:44;;;;;;;25.83;3.47;;;5.70;99.90;;;;;;5031625;28;20514;-72
2022/01/31 08:43:09;;;;;;;23.98;4.15;;;5.80;99.90;;;;;;5031677;28;20125;-72
2022/01/31 08:45:35;;;;;;;26.42;3.63;;;5.80;99.90;;;;;;5031359;28;20495;-72
2022/01/31 08:48:03;;;;;;;19.85;3.42;;;5.80;99.90;;;;;;5031499;28;20041;-72
2022/01/31 08:50:28;;;;;;;26.17;3.10;;;5.80;99.90;;;;;;5031474;28;20041;-72
2022/01/31 08:52:54;;;;;;;22.25;3.10;;;5.90;99.90;;;;;;5015109;28;20052;-72
2022/01/31 08:55:21;;;;;;;20.15;3.33;;;5.90;99.90;;;;;;5031702;28;20133;-72
2022/01/31 08:57:52;;;;;;;17.50;2.60;;;6.00;99.90;;;;;;5031918;28;20037;-72
2022/01/31 09:00:18;;;;;;;15.82;2.50;;;6.00;99.90;;;;;;5031731;28;20064;-72
2022/01/31 09:02:58;;;;;;;15.25;2.60;;;6.00;99.90;;;;;;5031679;28;20496;-72
2022/01/31 09:05:24;;;;;;;14.43;2.00;;;6.10;99.90;;;;;;5032377;28;20045;-72
2022/01/31 09:07:50;;;;;;;13.77;2.45;;;6.10;99.90;;;;;;5035296;28;20046;-72
2022/01/31 09:10:15;;;;;;;10.07;2.22;;;6.20;99.90;;;;;;5018707;28;20128;-72
2022/01/31 09:12:41;;;;;;;12.25;2.05;;;6.20;99.90;;;;;;5019148;28;20073;-72
2022/01/31 09:15:07;;;;;;;9.38;2.15;;;6.30;99.90;;;;;;5035250;28;20037;-72
2022/01/31 09:17:34;;;;;;;13.63;2.33;;;6.30;99.90;;;;;;5035036;28;20124;-72
2022/01/31 09:19:59;;;;;;;9.75;1.98;;;6.40;99.90;;;;;;5018784;28;20045;-72
2022/01/31 09:22:25;;;;;;;15.02;2.30;;;6.40;99.90;;;;;;5035216;28;20552;-72
2022/01/31 09:24:51;;;;;;;11.30;1.80;;;6.50;99.90;;;;;;5034860;28;20124;-72
2022/01/31 09:27:17;;;;;;;8.80;1.65;;;6.50;99.90;;;;;;5034861;28;20402;-72
2022/01/31 09:29:43;;;;;;;12.90;1.73;;;6.50;99.90;;;;;;5034842;28;20038;-72
2022/01/31 09:32:10;;;;;;;16.25;2.15;;;6.60;99.90;;;;;;5034766;28;20423;-72
2022/01/31 09:34:36;;;;;;;15.27;2.33;;;6.60;99.90;;;;;;5034736;28;20033;-72
2022/01/31 09:37:03;;;;;;;13.80;2.10;;;6.60;99.90;;;;;;5034701;28;20116;-72
2022/01/31 09:39:30;;;;;;;12.13;1.80;;;6.70;99.90;;;;;;5034858;28;20038;-72
2022/01/31 09:41:57;;;;;;;14.07;2.13;;;6.70;99.90;;;;;;5034641;28;20499;-72
2022/01/31 09:49:43;;;;;;;13.77;1.92;;;6.90;99.90;;;;;;5034743;28;20053;-72
2022/01/31 09:52:08;;;;;;;14.30;2.10;;;6.80;99.90;;;;;;5017832;28;20045;-72
2022/01/31 09:54:34;;;;;;;10.75;1.77;;;6.80;99.90;;;;;;5034268;28;20044;-72
2022/01/31 09:56:59;;;;;;;16.05;1.98;;;6.90;99.90;;;;;;5034577;28;20090;-72
2022/01/31 09:59:25;;;;;;;12.10;2.03;;;6.90;99.90;;;;;;5034268;28;20491;-72
2022/01/31 10:01:54;;;;;;;12.85;3.05;;;6.90;99.90;;;;;;5034251;28;20044;-72
2022/01/31 10:04:30;;;;;;;19.92;2.38;;;6.90;99.90;;;;;;5034161;28;20053;-72
2022/01/31 10:06:57;;;;;;;12.68;1.85;;;6.90;99.90;;;;;;5035798;28;20446;-72
2022/01/31 10:09:28;;;;;;;10.80;1.85;;;7.00;99.90;;;;;;5034094;28;20115;-72
2022/01/31 10:12:07;;;;;;;12.30;2.47;;;7.10;99.90;;;;;;5033928;28;20045;-72
2022/01/31 10:17:27;;;;;;;14.95;1.90;;;7.10;99.90;;;;;;5033512;28;20045;-72
2022/01/31 10:19:56;;;;;;;11.60;1.52;;;7.00;99.90;;;;;;5033863;28;20049;-72
2022/01/31 10:22:23;;;;;;;8.25;1.50;;;7.10;99.90;;;;;;5034116;28;20411;-72
2022/01/31 10:24:53;;;;;;;10.18;1.60;;;7.10;99.90;;;;;;5033721;28;20514;-72
2022/01/31 10:27:22;;;;;;;11.55;1.60;;;7.20;99.90;;;;;;5033760;28;20045;-72
2022/01/31 10:29:50;;;;;;;11.13;1.40;;;7.30;99.90;;;;;;5035029;28;20036;-72
2022/01/31 10:32:29;;;;;;;12.35;1.70;;;7.40;99.90;;;;;;5033589;28;20057;-72
2022/01/31 10:34:57;;;;;;;12.15;1.70;;;7.50;99.90;;;;;;5033602;28;20071;-72
2022/01/31 10:37:24;;;;;;;7.80;1.08;;;7.50;99.90;;;;;;5017050;28;20491;-72
2022/01/31 10:45:44;;;;;;;8.82;1.23;;;7.60;99.90;;;;;;5033143;28;20080;-72
2022/01/31 10:54:26;;;;;;;8.48;1.30;;;7.60;99.90;;;;;;5033559;28;20045;-73
2022/01/31 10:56:48;;;;;;;11.38;1.13;;;7.60;99.90;;;;;;5032883;28;20081;-73
2022/01/31 10:59:20;;;;;;;10.68;1.83;;;7.60;99.90;;;;;;5016945;28;20091;-73
2022/01/31 11:01:48;;;;;;;9.60;1.55;;;7.60;99.90;;;;;;5033396;28;20099;-72
2022/01/31 11:04:15;;;;;;;14.43;1.73;;;7.60;99.90;;;;;;5033246;28;20053;-73
2022/01/31 11:06:46;;;;;;;13.93;2.10;;;7.60;99.90;;;;;;5033322;28;20053;-73
2022/01/31 11:09:15;;;;;;;13.88;2.08;;;7.70;99.90;;;;;;5033002;28;20052;-73
2022/01/31 11:11:50;;;;;;;12.80;2.10;;;7.80;99.90;;;;;;5032883;28;20120;-73
2022/01/31 11:14:16;;;;;;;14.68;2.22;;;7.80;99.90;;;;;;5032842;28;20040;-73
2022/01/31 11:16:44;;;;;;;13.27;2.20;;;7.80;99.90;;;;;;5032865;28;20117;-73
2022/01/31 11:19:12;;;;;;;16.67;2.28;;;8.00;99.90;;;;;;5032813;28;20048;-73
2022/01/31 11:21:43;;;;;;;16.52;2.28;;;8.10;99.90;;;;;;5032715;28;20380;-73
2022/01/31 11:24:32;;;;;;;16.10;2.13;;;8.30;99.90;;;;;;5032694;28;20406;-73
2022/01/31 11:27:09;;;;;;;12.45;2.20;;;8.50;99.90;;;;;;5032635;28;20034;-73
2022/01/31 11:29:42;;;;;;;12.85;2.63;;;8.90;99.90;;;;;;5032259;28;20037;-73
2022/01/31 11:32:08;;;;;;;17.80;2.30;;;9.60;99.90;;;;;;5032463;28;20049;-73
2022/01/31 11:34:37;;;;;;;20.27;2.90;;;10.70;99.90;;;;;;5032698;28;20048;-73
2022/01/31 11:37:03;;;;;;;14.70;3.08;;;12.00;99.90;;;;;;5032499;28;20048;-73
2022/01/31 11:39:29;;;;;;;13.38;2.30;;;12.70;99.90;;;;;;5032658;28;20065;-73
2022/01/31 11:42:01;;;;;;;19.40;3.10;;;12.20;99.70;;;;;;5032658;28;20143;-73
2022/01/31 11:44:41;;;;;;;16.45;2.92;;;12.10;99.90;;;;;;5032406;28;20049;-73
2022/01/31 11:47:08;;;;;;;18.33;2.67;;;12.00;99.60;;;;;;5032301;28;20047;-74
2022/01/31 11:49:52;;;;;;;17.10;2.72;;;12.30;99.70;;;;;;5015823;28;20046;-73
2022/01/31 11:52:19;;;;;;;13.25;2.78;;;12.90;95.20;;;;;;5015830;28;20499;-73
2022/01/31 11:55:00;;;;;;;13.75;2.53;;;13.30;94.90;;;;;;5032130;28;20041;-73
2022/01/31 11:57:34;;;;;;;16.10;2.58;;;13.90;90.50;;;;;;5032154;28;20128;-73
2022/01/31 12:00:08;;;;;;;19.27;3.13;;;14.80;88.70;;;;;;5032066;28;20380;-73
2022/01/31 12:02:46;;;;;;;16.83;2.22;;;16.00;83.90;;;;;;5032116;28;20079;-73
2022/01/31 12:05:16;;;;;;;16.90;2.47;;;16.40;75.20;;;;;;5032276;28;20056;-74
2022/01/31 12:08:06;;;;;;;14.75;2.63;;;15.60;76.80;;;;;;5032268;28;20206;-74
2022/01/31 12:10:39;;;;;;;14.88;2.17;;;14.50;80.70;;;;;;5031360;28;20141;-74
2022/01/31 12:13:27;;;;;;;14.15;2.58;;;13.20;87.70;;;;;;5031944;28;20042;-74
2022/01/31 12:16:01;;;;;;;11.25;1.83;;;12.30;92.30;;;;;;5031939;28;20214;-73
2022/01/31 12:23:57;;;;;;;11.77;1.98;;;10.60;98.60;;;;;;5031726;28;20042;-73
2022/01/31 12:26:31;;;;;;;9.88;1.80;;;10.30;99.90;;;;;;5031722;28;20049;-73
2022/01/31 12:29:08;;;;;;;7.65;1.42;;;10.10;99.90;;;;;;5031683;28;20041;-73
2022/01/31 12:31:34;;;;;;;14.27;2.55;;;9.80;99.90;;;;;;5031628;28;20045;-73
2022/01/31 12:34:00;;;;;;;11.40;2.17;;;9.60;99.90;;;;;;5031653;28;20048;-73
2022/01/31 12:36:45;;;;;;;10.93;1.65;;;9.40;99.90;;;;;;5031672;28;20053;-73
2022/01/31 12:39:36;;;;;;;14.27;2.28;;;9.20;99.90;;;;;;5032152;28;20038;-73
2022/01/31 12:45:10;;;;;;;13.07;1.90;;;9.00;99.90;;;;;;5035747;28;20134;-73
2022/01/31 12:47:36;;;;;;;12.57;2.30;;;9.00;99.90;;;;;;5019400;28;20120;-73
2022/01/31 12:50:21;;;;;;;17.75;2.63;;;8.90;99.90;;;;;;5035494;28;20208;-73
2022/01/31 12:52:47;;;;;;;15.75;2.47;;;8.80;99.90;;;;;;5019066;28;20075;-74
2022/01/31 12:55:13;;;;;;;13.88;2.78;;;8.80;99.90;;;;;;5035526;28;20072;-74
2022/01/31 12:57:53;;;;;;;12.35;2.22;;;8.70;99.90;;;;;;5035439;28;20441;-74
2022/01/31 13:00:32;;;;;;;18.52;3.13;;;8.70;99.90;;;;;;5035397;28;20415;-73
2022/01/31 13:02:58;;;;;;;14.20;2.45;;;8.60;99.90;;;;;;5035425;28;20410;-74
2022/01/31 13:05:34;;;;;;;17.80;2.40;;;8.60;99.90;;;;;;5035207;28;20033;-74
2022/01/31 13:08:00;;;;;;;14.32;2.75;;;8.60;99.90;;;;;;5035530;28;20411;-73
2022/01/31 13:10:36;;;;;;;19.85;3.35;;;8.60;99.90;;;;;;5018950;28;20045;-74
2022/01/31 13:13:03;;;;;;;17.65;2.60;;;8.60;99.90;;;;;;5035269;28;20045;-74
2022/01/31 13:15:28;;;;;;;17.25;2.65;;;8.50;99.90;;;;;;5035206;28;20029;-73
2022/01/31 13:18:05;;;;;;;18.65;3.33;;;8.50;99.90;;;;;;5035543;28;20183;-73